Time;durP1;ratioP1;P1;durP2;ratioP2;P2;SDS_P1;SDS_P2;PMS_P1;PMS_P2;Temp;Humidity;BMP_temperature;BMP_pressure;BME280_temperature;BME280_humidity;BME280_pressure;Samples;Min_cycle;Max_cycle;Signal;HPM_P1;HPM_P2
2021/10/31 00:02:00;;;;;;;15.27;8.02;;;13.70;99.90;;;13.88;86.39;100399.97;5052978;28;20041;-71
2021/10/31 00:04:30;;;;;;;16.88;7.57;;;13.70;99.90;;;13.97;86.52;100416.56;5052378;28;20501;-71
2021/10/31 00:06:58;;;;;;;20.83;8.07;;;13.70;99.90;;;13.92;86.75;100421.09;5053709;28;20128;-71
2021/10/31 00:09:27;;;;;;;15.07;7.10;;;13.70;99.90;;;13.96;86.99;100421.91;5053391;28;20045;-71
2021/10/31 00:11:56;;;;;;;17.33;7.00;;;13.60;99.90;;;13.33;86.89;100321.63;5052327;28;20049;-71
2021/10/31 00:14:24;;;;;;;16.60;8.95;;;13.60;99.90;;;13.84;87.25;100411.59;5052308;28;20190;-71
2021/10/31 00:16:58;;;;;;;16.70;8.23;;;13.70;99.90;;;13.92;87.32;100421.09;5053517;28;20064;-71
2021/10/31 00:19:29;;;;;;;14.88;7.65;;;13.70;99.90;;;13.85;87.49;100421.31;5053300;28;20064;-71
2021/10/31 00:21:58;;;;;;;12.40;6.97;;;13.60;99.90;;;13.83;87.87;100436.41;5053547;28;20095;-71
2021/10/31 00:24:27;;;;;;;16.35;8.05;;;13.60;99.90;;;13.82;87.99;100442.66;5053021;28;20060;-71
2021/10/31 00:26:56;;;;;;;24.90;8.80;;;13.60;99.90;;;13.77;88.25;100439.22;5053633;28;20375;-71
2021/10/31 00:29:24;;;;;;;18.38;8.02;;;13.60;99.90;;;13.76;88.41;100438.38;5052104;28;20037;-71
2021/10/31 00:31:53;;;;;;;16.83;7.93;;;13.50;99.90;;;13.74;88.87;100437.53;5053089;28;20044;-71
2021/10/31 00:34:21;;;;;;;18.20;6.97;;;13.50;99.90;;;13.74;89.10;100444.63;5052945;28;20072;-71
2021/10/31 00:36:51;;;;;;;15.23;7.97;;;13.50;99.90;;;13.73;88.99;100443.75;5053025;28;20044;-71
2021/10/31 00:39:19;;;;;;;19.33;7.47;;;13.50;99.90;;;13.69;89.26;100443.84;5053362;28;20041;-71
2021/10/31 00:41:48;;;;;;;13.45;7.53;;;13.50;99.90;;;13.63;89.43;100428.06;5053030;28;20076;-71
2021/10/31 00:44:16;;;;;;;14.90;6.60;;;13.50;99.90;;;12.82;88.99;100288.28;5052958;28;20052;-71
2021/10/31 00:46:45;;;;;;;14.60;6.88;;;13.50;99.90;;;13.78;89.06;100451.63;5068617;28;20049;-71
2021/10/31 00:49:13;;;;;;;14.77;7.18;;;13.50;99.90;;;13.62;88.65;100432.50;5052903;28;20486;-71
2021/10/31 00:51:42;;;;;;;18.50;7.55;;;13.50;99.90;;;13.06;88.49;100330.25;5068529;28;20041;-71
2021/10/31 00:54:13;;;;;;;16.60;6.82;;;13.50;99.90;;;13.65;88.39;100447.47;5053219;28;20067;-71
2021/10/31 00:56:41;;;;;;;13.38;7.00;;;13.40;99.90;;;13.66;88.65;100450.13;5051731;28;20431;-71
2021/10/31 00:59:09;;;;;;;16.90;6.63;;;13.50;99.90;;;13.74;88.63;100460.56;5053082;28;20033;-71
2021/10/31 01:01:38;;;;;;;19.02;6.82;;;13.50;99.90;;;13.42;88.47;100424.13;5052794;28;20055;-71
2021/10/31 01:04:07;;;;;;;13.95;7.07;;;13.50;99.90;;;12.81;88.35;100314.88;5053302;28;20041;-71
2021/10/31 01:07:13;;;;;;;15.55;6.50;;;13.40;99.90;;;13.59;88.81;100449.38;5052754;28;20538;-71
2021/10/31 01:10:01;;;;;;;16.80;6.70;;;13.40;99.90;;;13.53;88.55;100433.59;5051727;28;20052;-70
2021/10/31 01:12:51;;;;;;;12.43;6.13;;;13.40;99.90;;;13.71;88.63;100442.03;5052678;28;20076;-70
2021/10/31 01:15:31;;;;;;;15.77;7.00;;;13.40;99.90;;;13.65;88.54;100427.09;5056679;28;20091;-71
2021/10/31 01:18:22;;;;;;;13.63;6.97;;;13.40;99.90;;;12.62;88.29;100264.84;5056589;28;20039;-71
2021/10/31 01:21:06;;;;;;;13.45;6.72;;;13.40;99.90;;;12.79;87.90;100292.78;5056568;28;20548;-71
2021/10/31 01:23:56;;;;;;;17.17;7.38;;;13.40;99.90;;;13.45;87.80;100406.31;5055245;28;20513;-71
2021/10/31 01:26:38;;;;;;;;;;;13.40;99.90;;;13.68;87.21;100447.44;5057153;28;20041;-70
2021/10/31 01:29:20;;;;;;;19.35;8.43;;;13.40;99.90;;;13.54;87.51;100440.66;5057062;28;19974;-71
2021/10/31 01:32:05;;;;;;;14.82;7.65;;;13.30;99.90;;;13.39;88.17;100417.06;5056430;28;20064;-71
2021/10/31 01:34:49;;;;;;;10.57;7.38;;;13.30;99.90;;;13.50;87.74;100444.31;5056573;28;20045;-70
2021/10/31 01:37:35;;;;;;;15.32;7.70;;;13.30;99.90;;;13.46;87.89;100439.97;5056318;28;20486;-70
2021/10/31 01:40:12;;;;;;;19.25;7.70;;;13.20;99.90;;;13.53;87.68;100446.00;5055288;28;20052;-71
2021/10/31 01:42:58;;;;;;;15.90;7.40;;;13.20;99.90;;;13.49;87.48;100442.53;5056208;28;20037;-70
2021/10/31 01:45:39;;;;;;;13.10;7.20;;;13.20;99.90;;;13.31;87.16;100427.03;5056684;28;20052;-71
2021/10/31 01:48:28;;;;;;;14.65;6.97;;;13.20;99.90;;;13.30;87.85;100421.72;5056110;28;20090;-71
2021/10/31 01:51:02;;;;;;;17.75;7.45;;;13.20;99.90;;;13.33;87.90;100440.28;5056073;28;20068;-71
2021/10/31 01:53:37;;;;;;;13.35;6.18;;;13.10;99.90;;;12.99;87.76;100381.69;5071518;28;20056;-71
2021/10/31 01:56:11;;;;;;;18.27;6.45;;;13.10;99.90;;;13.09;87.79;100417.78;5055973;28;20041;-71
2021/10/31 01:58:49;;;;;;;14.70;6.15;;;13.10;99.90;;;13.20;87.95;100439.66;5055913;28;20045;-71
2021/10/31 02:01:20;;;;;;;14.73;5.80;;;13.00;99.90;;;13.19;88.25;100445.88;5056193;28;20119;-71
2021/10/31 02:03:51;;;;;;;14.52;6.32;;;13.00;99.90;;;13.21;88.20;100461.78;5055866;28;20051;-72
2021/10/31 02:06:20;;;;;;;12.85;6.30;;;13.00;99.90;;;13.31;88.21;100450.94;5056116;28;20041;-71
2021/10/31 02:08:53;;;;;;;11.88;6.57;;;13.00;99.90;;;13.24;87.97;100438.69;5055692;28;20049;-71
2021/10/31 02:11:22;;;;;;;14.88;6.35;;;13.00;99.90;;;13.31;87.79;100447.41;5055703;28;20048;-71
2021/10/31 02:13:54;;;;;;;12.60;6.28;;;13.00;99.90;;;12.50;87.70;100312.00;5055461;28;20453;-71
2021/10/31 02:16:23;;;;;;;14.85;6.20;;;13.00;99.90;;;13.29;87.63;100450.09;5055650;28;20041;-71
2021/10/31 02:18:56;;;;;;;12.45;5.82;;;13.00;99.90;;;13.26;87.37;100447.50;5055764;28;20037;-71
2021/10/31 02:21:28;;;;;;;8.73;5.45;;;13.00;99.90;;;13.23;87.81;100446.69;5055514;28;20049;-71
2021/10/31 02:23:59;;;;;;;12.93;5.85;;;13.00;99.90;;;13.22;87.77;100448.47;5055597;28;20375;-71
2021/10/31 02:26:27;;;;;;;14.23;5.95;;;13.00;99.90;;;13.21;87.78;100453.81;5054616;28;20045;-71
2021/10/31 02:28:58;;;;;;;9.25;6.13;;;12.90;99.90;;;11.61;87.89;100176.84;5055558;28;20041;-71
2021/10/31 02:31:28;;;;;;;13.45;6.13;;;12.90;99.90;;;12.61;87.78;100401.09;5071107;28;20049;-71
2021/10/31 02:33:57;;;;;;;18.80;6.35;;;13.00;99.90;;;13.21;87.84;100454.69;5055221;28;20044;-71
2021/10/31 02:36:26;;;;;;;12.45;5.50;;;12.90;99.90;;;13.13;87.53;100435.41;5055196;28;20045;-72
2021/10/31 02:38:56;;;;;;;11.90;6.03;;;13.00;99.90;;;12.46;87.87;100332.44;5055106;28;20556;-71
2021/10/31 02:41:26;;;;;;;15.15;6.57;;;12.90;99.90;;;13.00;88.26;100430.34;5055155;28;20045;-71
2021/10/31 02:43:55;;;;;;;17.25;7.10;;;12.90;99.90;;;13.07;88.38;100434.66;5054081;28;20061;-71
2021/10/31 02:46:24;;;;;;;16.40;6.68;;;12.80;99.90;;;13.12;88.59;100432.78;5054980;28;20435;-71
2021/10/31 02:48:53;;;;;;;13.90;6.65;;;12.90;99.90;;;12.95;88.62;100414.50;5054945;28;20045;-71
2021/10/31 02:51:35;;;;;;;15.48;6.70;;;12.90;99.90;;;13.06;88.78;100432.91;5054911;28;20453;-71
2021/10/31 02:54:17;;;;;;;13.60;6.20;;;12.90;99.90;;;13.14;88.50;100434.47;5055265;28;20049;-72
2021/10/31 02:57:00;;;;;;;15.57;6.10;;;12.90;99.90;;;12.59;88.62;100391.41;5054859;28;20041;-71
2021/10/31 02:59:42;;;;;;;8.93;6.30;;;12.80;99.90;;;12.89;88.64;100425.25;5054829;28;20049;-71
2021/10/31 03:02:11;;;;;;;16.75;6.70;;;12.80;99.90;;;12.23;88.55;100305.47;5054722;28;20045;-71
2021/10/31 03:04:41;;;;;;;12.05;6.63;;;12.80;99.90;;;12.90;88.85;100429.66;5070346;28;20041;-71
2021/10/31 03:07:10;;;;;;;10.63;6.20;;;12.70;99.90;;;12.80;88.68;100422.81;5054561;28;20120;-71
2021/10/31 03:09:39;;;;;;;11.13;6.80;;;12.70;99.90;;;12.36;89.67;100393.63;5054809;28;20470;-71
2021/10/31 03:12:10;;;;;;;13.68;7.32;;;12.50;99.90;;;12.46;90.16;100408.47;5054505;28;20048;-71
2021/10/31 03:14:39;;;;;;;13.48;7.65;;;12.40;99.90;;;12.44;90.48;100415.59;5070095;28;20045;-71
2021/10/31 03:17:08;;;;;;;14.05;7.93;;;12.30;99.90;;;12.48;91.08;100417.28;5054366;28;20080;-73
2021/10/31 03:19:37;;;;;;;16.92;8.45;;;12.30;99.90;;;12.43;91.20;100406.75;5053272;28;20155;-73
2021/10/31 03:22:06;;;;;;;10.73;6.80;;;12.30;99.90;;;12.36;91.60;100414.84;5054429;28;20073;-73
2021/10/31 03:24:36;;;;;;;11.40;7.60;;;12.20;99.90;;;12.36;91.84;100421.03;5054047;28;20057;-73
2021/10/31 03:27:05;;;;;;;20.75;9.20;;;12.20;99.90;;;12.15;92.05;100407.28;5053210;28;20403;-72
2021/10/31 03:29:35;;;;;;;13.57;8.35;;;12.20;99.90;;;12.30;92.33;100405.25;5054138;28;20076;-72
2021/10/31 03:32:04;;;;;;;16.05;8.82;;;12.20;99.90;;;12.37;92.62;100404.22;5069528;28;20107;-72
2021/10/31 03:34:33;;;;;;;26.77;7.80;;;12.20;99.90;;;12.40;92.12;100397.97;5054501;28;20188;-72
2021/10/31 03:37:02;;;;;;;14.38;7.65;;;12.30;99.90;;;12.41;91.97;100403.25;5054181;28;20072;-73
2021/10/31 03:39:30;;;;;;;15.68;8.25;;;12.30;99.90;;;12.38;91.93;100399.78;5054201;28;20033;-72
2021/10/31 03:41:59;;;;;;;16.38;8.10;;;12.30;99.90;;;12.38;92.13;100398.00;5053933;28;20060;-72
2021/10/31 03:44:29;;;;;;;14.88;7.70;;;12.20;99.90;;;12.29;91.87;100389.38;5054132;28;20041;-73
2021/10/31 03:46:59;;;;;;;14.18;7.65;;;12.30;99.90;;;12.29;91.95;100392.88;5053846;28;20052;-72
2021/10/31 03:49:27;;;;;;;15.77;8.73;;;12.20;99.90;;;12.28;92.17;100385.81;5052801;28;20402;-72
2021/10/31 03:51:56;;;;;;;13.40;7.85;;;12.20;99.90;;;12.20;92.20;100381.56;5053696;28;20049;-72
2021/10/31 03:54:24;;;;;;;12.13;7.70;;;12.20;99.90;;;12.35;92.01;100381.28;5068933;28;20052;-72
2021/10/31 03:56:52;;;;;;;17.33;8.65;;;12.20;99.90;;;12.27;91.72;100388.50;5053532;28;20065;-72
2021/10/31 03:59:21;;;;;;;16.23;8.55;;;12.20;99.90;;;12.04;91.72;100372.16;5053576;28;20052;-72
2021/10/31 04:01:49;;;;;;;13.07;8.02;;;12.10;99.90;;;12.04;92.02;100391.56;5053818;28;20429;-72
2021/10/31 04:04:20;;;;;;;17.40;8.52;;;12.00;99.90;;;11.95;92.13;100385.56;5053499;28;20123;-72
2021/10/31 04:06:48;;;;;;;12.90;8.27;;;11.90;99.90;;;11.84;92.47;100387.53;5053764;28;20048;-72
2021/10/31 04:09:16;;;;;;;14.63;9.20;;;11.80;99.90;;;11.78;93.24;100385.88;5053455;28;20045;-72
2021/10/31 04:11:45;;;;;;;14.82;8.85;;;11.70;99.90;;;11.61;93.75;100370.22;5052426;28;20091;-72
2021/10/31 04:14:13;;;;;;;16.38;10.32;;;11.70;99.90;;;11.68;94.35;100374.56;5053631;28;20098;-72
2021/10/31 04:16:43;;;;;;;17.33;10.25;;;11.60;99.90;;;11.43;94.65;100337.88;5053231;28;20396;-72
2021/10/31 04:19:11;;;;;;;16.38;10.48;;;11.60;99.90;;;11.62;94.92;100376.38;5053497;28;20120;-72
2021/10/31 04:21:41;;;;;;;15.98;10.95;;;11.60;99.90;;;11.52;95.77;100382.72;5053520;28;20044;-72
2021/10/31 04:24:10;;;;;;;17.13;10.63;;;11.50;99.90;;;11.23;96.00;100329.34;5053145;28;20049;-72
2021/10/31 04:26:38;;;;;;;15.55;10.90;;;11.50;99.90;;;11.28;96.44;100338.13;5053488;28;20045;-72
2021/10/31 04:29:06;;;;;;;21.35;12.13;;;11.40;99.90;;;11.50;96.49;100393.34;5053148;28;20064;-72
2021/10/31 04:31:35;;;;;;;22.17;12.68;;;11.50;99.90;;;11.54;96.49;100363.28;5053405;28;20041;-72
2021/10/31 04:34:03;;;;;;;21.30;11.90;;;11.50;99.90;;;11.49;96.70;100373.06;5053297;28;20041;-72
2021/10/31 04:36:32;;;;;;;23.38;13.52;;;11.50;99.90;;;11.56;96.40;100366.78;5052962;28;20099;-72
2021/10/31 04:39:02;;;;;;;15.13;11.65;;;11.50;99.90;;;11.52;95.99;100367.72;5053281;28;20045;-72
2021/10/31 04:41:31;;;;;;;18.05;12.07;;;11.50;99.90;;;10.96;96.11;100250.41;5053045;28;20402;-72
2021/10/31 04:44:00;;;;;;;21.77;12.80;;;11.50;99.90;;;11.45;95.44;100358.13;5052950;28;20055;-72
2021/10/31 04:46:28;;;;;;;19.35;11.40;;;11.40;99.90;;;11.38;95.89;100355.63;5052910;28;20115;-72
2021/10/31 04:48:57;;;;;;;19.10;11.75;;;11.30;99.90;;;11.38;96.28;100360.91;5052412;28;20457;-72
2021/10/31 04:51:25;;;;;;;18.25;13.07;;;11.30;99.90;;;11.26;97.14;100356.69;5053443;28;20439;-72
2021/10/31 04:53:53;;;;;;;22.58;12.68;;;11.20;99.90;;;11.21;97.77;100363.81;5053245;28;20445;-72
2021/10/31 04:56:23;;;;;;;22.67;13.73;;;11.10;99.90;;;11.16;98.12;100376.25;5052744;28;20048;-72
2021/10/31 04:58:52;;;;;;;24.75;14.88;;;11.00;99.90;;;11.24;98.38;100362.88;5052866;28;20049;-72
2021/10/31 05:01:21;;;;;;;22.00;14.70;;;11.00;99.90;;;11.21;98.26;100363.81;5052783;28;20033;-72
2021/10/31 05:03:50;;;;;;;19.70;14.70;;;11.00;99.90;;;9.46;97.64;100046.47;5051772;28;20056;-72
2021/10/31 05:06:18;;;;;;;23.65;15.73;;;11.00;99.90;;;10.99;98.28;100337.69;5052732;28;20120;-72
2021/10/31 05:08:47;;;;;;;20.05;14.20;;;10.90;99.90;;;10.71;98.47;100294.88;5052752;28;20087;-72
2021/10/31 05:11:15;;;;;;;21.75;15.55;;;10.80;99.90;;;10.84;98.78;100346.69;5053249;28;20045;-72
2021/10/31 05:13:45;;;;;;;24.40;16.15;;;10.80;99.90;;;10.88;99.37;100322.84;5052743;28;20041;-72
2021/10/31 05:16:14;;;;;;;28.23;16.80;;;10.80;99.90;;;10.95;99.25;100341.28;5052672;28;20037;-72
2021/10/31 05:18:43;;;;;;;25.77;16.85;;;10.80;99.90;;;10.02;99.47;100169.81;5052587;28;20709;-72
2021/10/31 05:21:11;;;;;;;22.75;17.00;;;10.80;99.90;;;10.93;100.00;100330.72;5052654;28;20043;-72
2021/10/31 05:23:40;;;;;;;27.42;18.58;;;10.80;99.90;;;10.81;99.80;100304.44;5052552;28;20041;-72
2021/10/31 05:26:09;;;;;;;23.30;18.05;;;10.80;99.90;;;10.86;99.72;100323.75;5051693;28;20056;-72
2021/10/31 05:28:37;;;;;;;25.83;18.45;;;10.80;99.90;;;10.64;99.78;100312.63;5052507;28;20045;-72
2021/10/31 05:31:07;;;;;;;23.55;19.48;;;10.80;99.90;;;10.63;100.00;100291.47;5052525;28;20501;-71
2021/10/31 05:33:36;;;;;;;26.08;18.95;;;10.70;99.90;;;10.81;100.00;100320.31;5052816;28;20041;-71
2021/10/31 05:36:05;;;;;;;29.45;19.63;;;10.70;99.90;;;10.82;100.00;100309.69;5052622;28;20072;-72
2021/10/31 05:38:33;;;;;;;25.90;20.27;;;10.70;99.90;;;10.60;100.00;100273.88;5052427;28;20048;-72
2021/10/31 05:41:03;;;;;;;26.60;19.25;;;10.80;99.90;;;10.75;100.00;100315.97;5052430;28;20052;-72
2021/10/31 05:43:32;;;;;;;25.30;20.02;;;10.70;99.90;;;10.74;100.00;100314.22;5053249;28;20124;-72
2021/10/31 05:46:01;;;;;;;28.73;20.02;;;10.60;99.90;;;10.73;100.00;100301.91;5052612;28;20067;-72
2021/10/31 05:48:32;;;;;;;29.27;19.58;;;10.60;99.90;;;10.69;100.00;100292.25;5052633;28;20056;-72
2021/10/31 05:51:00;;;;;;;;;;;10.60;99.90;;;10.76;100.00;100312.41;5053356;28;20085;-72
2021/10/31 05:53:29;;;;;;;28.10;20.33;;;10.70;99.90;;;10.81;100.00;100315.00;5052252;28;19925;-72
2021/10/31 05:55:58;;;;;;;30.67;20.23;;;10.70;99.90;;;10.61;100.00;100280.91;5052471;28;20037;-72
2021/10/31 05:58:26;;;;;;;31.73;20.92;;;10.70;99.90;;;10.75;100.00;100309.81;5052266;28;20045;-72
2021/10/31 06:00:55;;;;;;;33.38;22.10;;;10.70;99.90;;;10.76;100.00;100290.41;5053551;28;20048;-72
2021/10/31 06:03:24;;;;;;;26.55;19.65;;;10.70;99.90;;;10.75;100.00;100286.00;5056089;28;20052;-72
2021/10/31 06:05:54;;;;;;;31.60;20.35;;;10.70;99.90;;;10.60;100.00;100257.13;5055667;28;20045;-72
2021/10/31 06:08:22;;;;;;;31.80;20.63;;;10.70;99.90;;;10.81;100.00;100291.22;5055679;28;20046;-72
2021/10/31 06:10:52;;;;;;;27.98;20.02;;;10.70;99.90;;;10.81;100.00;100285.91;5055643;28;20037;-72
2021/10/31 06:13:36;;;;;;;27.38;19.27;;;10.70;99.90;;;10.77;100.00;100293.03;5055878;28;20091;-72
2021/10/31 06:16:07;;;;;;;27.88;20.30;;;10.70;99.90;;;10.22;100.00;100223.28;5055528;28;20045;-72
2021/10/31 06:18:37;;;;;;;31.17;20.55;;;10.70;99.90;;;10.67;100.00;100264.97;5055619;28;20041;-72
2021/10/31 06:21:07;;;;;;;31.65;19.30;;;10.70;99.90;;;10.81;100.00;100272.69;5054523;28;20106;-72
2021/10/31 06:23:36;;;;;;;26.48;19.33;;;10.80;99.90;;;10.81;100.00;100273.56;5055220;28;20410;-71
2021/10/31 06:26:05;;;;;;;31.17;19.92;;;10.80;99.90;;;10.88;100.00;100279.63;5055448;28;20045;-72
2021/10/31 06:28:34;;;;;;;29.23;20.02;;;10.80;99.90;;;10.04;100.00;100139.81;5055279;28;20040;-72
2021/10/31 06:31:02;;;;;;;29.40;19.50;;;10.70;99.90;;;10.83;100.00;100260.31;5055825;28;20125;-72
2021/10/31 06:33:33;;;;;;;27.58;18.15;;;10.80;99.90;;;10.82;100.00;100254.13;5055519;28;20037;-71
2021/10/31 06:36:01;;;;;;;27.67;17.95;;;10.70;99.90;;;10.79;100.00;100246.25;5087457;28;20072;-71
2021/10/31 06:38:31;;;;;;;26.98;18.15;;;10.70;99.90;;;10.49;100.00;100196.47;5055113;28;20155;-72
2021/10/31 06:41:00;;;;;;;27.55;19.88;;;10.80;99.90;;;10.86;100.00;100263.78;5055332;28;20044;-71
2021/10/31 06:43:29;;;;;;;27.70;19.85;;;10.70;99.90;;;10.84;100.00;100252.34;5055281;28;20455;-71
2021/10/31 06:45:57;;;;;;;27.50;19.35;;;10.80;99.90;;;10.58;100.00;100212.22;5055006;28;20453;-71
2021/10/31 06:48:26;;;;;;;28.10;19.65;;;10.80;99.90;;;10.86;100.00;100260.25;5055539;28;20110;-72
2021/10/31 06:50:56;;;;;;;27.83;20.67;;;10.80;99.90;;;10.73;100.00;100237.53;5055216;28;20048;-71
2021/10/31 06:53:25;;;;;;;26.65;20.70;;;10.80;99.90;;;10.77;100.00;100226.00;5053704;28;20053;-71
2021/10/31 06:55:55;;;;;;;30.50;19.42;;;10.80;99.90;;;10.86;100.00;100229.38;5055109;28;20045;-71
2021/10/31 06:58:24;;;;;;;29.37;20.43;;;10.80;99.90;;;10.78;100.00;100230.44;5054723;28;20055;-71
2021/10/31 07:00:52;;;;;;;27.08;20.23;;;10.80;99.90;;;10.82;100.00;100205.63;5054890;28;20284;-71
2021/10/31 07:03:21;;;;;;;29.27;19.90;;;10.80;99.90;;;10.96;100.00;100219.53;5054934;28;20390;-71
2021/10/31 07:05:49;;;;;;;28.38;21.10;;;10.80;99.90;;;10.93;100.00;100211.66;5054632;28;20120;-71
2021/10/31 07:08:18;;;;;;;31.48;21.10;;;10.90;99.90;;;10.91;100.00;100187.00;5054858;28;20052;-71
2021/10/31 07:10:46;;;;;;;32.97;20.63;;;10.90;99.90;;;10.99;100.00;100211.56;5053416;28;20057;-71
2021/10/31 07:13:16;;;;;;;32.22;20.58;;;10.90;99.90;;;11.13;100.00;100221.91;5054771;28;20055;-72
2021/10/31 07:15:45;;;;;;;28.97;21.13;;;11.00;99.90;;;11.11;100.00;100210.47;5054453;28;20090;-72
2021/10/31 07:18:13;;;;;;;25.92;19.50;;;11.00;99.90;;;11.20;100.00;100210.31;5054628;28;20304;-72
2021/10/31 07:20:42;;;;;;;27.83;20.42;;;11.10;99.90;;;11.11;100.00;100203.38;5069631;28;20045;-72
2021/10/31 07:23:10;;;;;;;28.52;20.33;;;11.10;99.90;;;11.11;100.00;100203.38;5054446;28;20482;-72
2021/10/31 07:25:39;;;;;;;29.02;19.95;;;11.10;99.90;;;11.09;100.00;100210.47;5054512;28;20140;-72
2021/10/31 07:28:07;;;;;;;32.03;21.88;;;11.00;99.90;;;11.08;100.00;100208.75;5054184;28;20098;-72
2021/10/31 07:30:37;;;;;;;26.48;19.40;;;11.00;99.90;;;11.19;100.00;100222.66;5054163;28;20069;-72
2021/10/31 07:33:06;;;;;;;34.33;19.85;;;11.10;99.90;;;11.09;100.00;100199.88;5053189;28;20048;-72
2021/10/31 07:35:34;;;;;;;25.00;19.73;;;11.10;99.90;;;11.15;100.00;100212.16;5054331;28;20110;-71
2021/10/31 07:38:04;;;;;;;29.13;20.65;;;11.10;99.90;;;11.36;100.00;100215.28;5054066;28;20561;-72
2021/10/31 07:40:32;;;;;;;23.88;19.15;;;11.20;99.90;;;11.28;100.00;100214.56;5054442;28;20037;-74
2021/10/31 07:43:01;;;;;;;29.92;20.13;;;11.20;99.90;;;11.23;100.00;100200.53;5053919;28;20496;-74
2021/10/31 07:45:41;;;;;;;25.50;19.50;;;11.20;99.90;;;11.42;100.00;100203.75;5054137;28;20090;-75
2021/10/31 07:48:10;;;;;;;;;;;11.30;99.90;;;11.41;100.00;100188.72;5054171;28;20045;-75
2021/10/31 07:50:39;;;;;;;26.98;20.17;;;11.40;99.90;;;11.54;100.00;100209.66;5053983;28;19927;-72
2021/10/31 07:53:13;;;;;;;25.73;19.00;;;11.50;99.90;;;11.51;100.00;100201.78;5053851;28;20048;-73
2021/10/31 07:55:45;;;;;;;26.77;19.48;;;11.60;99.90;;;11.51;100.00;100199.13;5052301;28;20048;-74
2021/10/31 07:58:16;;;;;;;22.45;17.75;;;11.60;99.90;;;11.68;100.00;100220.91;5053919;28;20131;-73
2021/10/31 08:00:46;;;;;;;22.88;17.73;;;11.60;99.90;;;11.61;100.00;100187.44;5052673;28;20434;-72
2021/10/31 08:03:15;;;;;;;20.33;17.02;;;11.60;99.90;;;11.01;100.00;100087.16;5053825;28;20077;-72
2021/10/31 08:05:44;;;;;;;26.52;19.67;;;11.60;99.90;;;11.57;100.00;100171.66;5053447;28;20048;-74
2021/10/31 08:08:13;;;;;;;22.08;18.10;;;11.60;99.90;;;11.74;100.00;100182.81;5053690;28;20037;-73
2021/10/31 08:10:43;;;;;;;23.23;17.85;;;11.60;99.90;;;11.56;100.00;100141.66;5052405;28;20106;-73
2021/10/31 08:13:20;;;;;;;20.88;17.20;;;11.60;99.90;;;11.80;100.00;100148.25;5053258;28;20401;-73
2021/10/31 08:15:50;;;;;;;19.83;16.70;;;11.60;99.90;;;11.82;100.00;100172.06;5053369;28;20100;-72
2021/10/31 08:18:20;;;;;;;19.67;15.80;;;11.70;99.90;;;11.93;100.00;100170.94;5052076;28;20045;-70
2021/10/31 08:20:49;;;;;;;18.52;15.85;;;11.80;99.90;;;12.12;100.00;100172.28;5068924;28;20047;-69
2021/10/31 08:23:17;;;;;;;18.65;15.35;;;12.00;99.90;;;11.65;100.00;100090.28;5052565;28;20086;-68
2021/10/31 08:25:48;;;;;;;20.77;15.65;;;12.00;99.90;;;12.21;100.00;100160.63;5053401;28;20080;-68
2021/10/31 08:28:19;;;;;;;;;;;12.10;99.90;;;12.40;100.00;100152.22;5053506;28;20044;-68
2021/10/31 08:30:56;;;;;;;17.42;14.20;;;12.30;99.90;;;12.49;100.00;100151.97;5052841;28;19921;-68
2021/10/31 08:33:30;;;;;;;15.32;13.35;;;12.40;99.90;;;12.63;99.64;100159.59;5053532;28;20048;-69
2021/10/31 08:36:06;;;;;;;20.85;13.73;;;12.50;99.90;;;12.54;98.70;100160.69;5068688;28;20037;-68
2021/10/31 08:38:34;;;;;;;18.42;13.50;;;12.50;99.90;;;12.47;98.77;100176.78;5051597;28;20047;-68
2021/10/31 08:41:03;;;;;;;15.10;12.55;;;12.40;99.90;;;12.43;99.07;100156.53;5051504;28;20091;-72
2021/10/31 08:43:33;;;;;;;15.90;12.88;;;12.40;99.90;;;12.53;99.20;100132.44;5052775;28;20071;-71
2021/10/31 08:46:03;;;;;;;17.80;13.57;;;12.40;99.90;;;12.53;98.87;100118.28;5052859;28;20037;-71
2021/10/31 08:48:34;;;;;;;14.25;12.63;;;12.50;99.90;;;12.88;98.38;100144.81;5052729;28;20106;-72
2021/10/31 08:51:02;;;;;;;13.25;11.85;;;12.70;99.90;;;12.84;98.00;100152.88;5052934;28;20056;-70
2021/10/31 08:53:31;;;;;;;15.15;12.57;;;12.70;99.90;;;12.87;97.13;100129.81;5051375;28;20056;-71
2021/10/31 08:56:01;;;;;;;13.02;11.73;;;12.80;99.90;;;13.05;96.83;100134.66;5052891;28;20044;-69
2021/10/31 08:58:29;;;;;;;14.65;11.82;;;12.90;99.90;;;12.95;96.61;100119.84;5051414;28;20499;-69
2021/10/31 09:00:58;;;;;;;15.73;10.63;;;12.90;99.90;;;12.76;96.99;100112.41;5068105;28;20079;-69
2021/10/31 09:03:29;;;;;;;11.60;10.48;;;12.70;99.90;;;13.06;96.86;100106.34;5051589;28;20049;-68
2021/10/31 09:05:57;;;;;;;13.23;10.60;;;12.90;99.90;;;13.10;96.44;100098.28;5052613;28;20094;-69
2021/10/31 09:08:26;;;;;;;12.30;9.90;;;12.90;99.90;;;13.12;96.18;100100.88;5052586;28;20570;-70
2021/10/31 09:10:55;;;;;;;11.55;9.50;;;13.00;99.90;;;13.04;95.34;100090.47;5052971;28;20053;-69
2021/10/31 09:13:24;;;;;;;14.70;10.07;;;13.00;99.90;;;13.15;95.48;100090.16;5052618;28;20100;-69
2021/10/31 09:15:53;;;;;;;12.27;8.98;;;13.00;99.90;;;13.03;94.78;100080.75;5052594;28;20048;-68
2021/10/31 09:18:23;;;;;;;11.50;8.52;;;13.00;99.90;;;13.11;94.83;100084.06;5052538;28;20051;-69
2021/10/31 09:20:53;;;;;;;10.27;9.27;;;13.00;99.90;;;13.10;94.74;100076.16;5051625;28;20152;-69
2021/10/31 09:23:22;;;;;;;11.18;8.07;;;13.00;99.90;;;12.97;95.47;100083.53;5052875;28;20045;-69
2021/10/31 09:25:50;;;;;;;10.18;9.18;;;12.90;99.90;;;12.94;95.75;100070.34;5052972;28;20068;-69
2021/10/31 09:28:19;;;;;;;12.57;8.90;;;12.80;99.90;;;12.92;95.93;100093.41;5052460;28;20502;-69
2021/10/31 09:30:48;;;;;;;11.20;8.55;;;12.80;99.90;;;12.81;95.70;100031.78;5068033;28;20033;-69
2021/10/31 09:33:16;;;;;;;9.98;8.82;;;12.80;99.90;;;12.86;95.94;100069.69;5052635;28;20045;-69
2021/10/31 09:35:47;;;;;;;10.05;8.55;;;12.80;99.90;;;12.87;95.69;100036.94;5055301;28;20140;-69
2021/10/31 09:38:19;;;;;;;9.70;8.60;;;12.90;99.90;;;12.79;96.13;100006.19;5056362;28;20090;-68
2021/10/31 09:40:48;;;;;;;8.90;8.00;;;12.80;99.90;;;12.88;96.04;100020.09;5056104;28;20041;-69
2021/10/31 09:43:17;;;;;;;9.85;8.68;;;12.80;99.90;;;12.92;95.89;100019.09;5056206;28;20118;-69
2021/10/31 09:45:46;;;;;;;9.77;7.30;;;12.80;99.90;;;12.98;96.01;99989.72;5055029;28;20084;-69
2021/10/31 09:48:18;;;;;;;10.02;7.72;;;12.90;99.90;;;13.07;95.46;99993.91;5055944;28;20049;-68
2021/10/31 09:50:50;;;;;;;11.85;8.45;;;13.00;99.90;;;12.97;95.73;99989.78;5056003;28;20045;-68
2021/10/31 09:53:29;;;;;;;13.23;8.32;;;12.90;99.90;;;12.95;96.23;99981.81;5055860;28;20455;-69
2021/10/31 09:55:58;;;;;;;8.90;8.00;;;12.80;99.90;;;12.92;96.23;99987.25;5054865;28;20505;-69
2021/10/31 09:58:32;;;;;;;9.25;8.00;;;12.80;99.90;;;12.99;96.22;99966.72;5054755;28;20063;-67
2021/10/31 10:01:06;;;;;;;8.63;7.72;;;12.90;99.90;;;13.04;96.02;99978.97;5055831;28;20480;-69
2021/10/31 10:03:37;;;;;;;12.70;7.35;;;12.90;99.90;;;13.11;95.42;100001.75;5055557;28;20067;-69
2021/10/31 10:06:17;;;;;;;11.45;7.97;;;13.00;99.90;;;13.21;95.46;99994.41;5055722;28;20060;-68
2021/10/31 10:09:04;;;;;;;9.05;7.13;;;13.10;99.90;;;13.25;95.45;99991.63;5071228;28;20099;-69
2021/10/31 10:11:35;;;;;;;10.18;7.57;;;13.10;99.90;;;13.14;95.06;99972.44;5054737;28;20064;-69
2021/10/31 10:14:17;;;;;;;8.80;7.68;;;13.20;99.90;;;13.28;94.76;99980.00;5055871;28;20110;-70
2021/10/31 10:16:46;;;;;;;12.45;7.45;;;13.20;99.90;;;13.30;94.50;99967.56;5055507;28;20045;-69
2021/10/31 10:19:21;;;;;;;8.25;7.45;;;13.20;99.90;;;13.21;95.02;99979.34;5055230;28;20080;-69